sensor_id;sensor_type;location;lat;lon;timestamp;pressure;altitude;pressure_sealevel;temperature;humidity
45350;BME280;31086;51.702;-1.106;2022-07-23T00:01:27;101146.35;;;21.77;52.23
45350;BME280;31086;51.702;-1.106;2022-07-23T00:07:24;101143.76;;;22.57;53.11
45350;BME280;31086;51.702;-1.106;2022-07-23T00:09:51;101148.21;;;21.27;52.94
45350;BME280;31086;51.702;-1.106;2022-07-23T00:12:20;101148.15;;;21.68;52.41
45350;BME280;31086;51.702;-1.106;2022-07-23T00:14:47;101152.78;;;21.43;52.70
45350;BME280;31086;51.702;-1.106;2022-07-23T00:17:14;101152.62;;;21.14;53.12
45350;BME280;31086;51.702;-1.106;2022-07-23T00:19:41;101149.54;;;21.19;52.73
45350;BME280;31086;51.702;-1.106;2022-07-23T00:22:09;101146.40;;;21.80;52.23
45350;BME280;31086;51.702;-1.106;2022-07-23T00:24:36;101146.12;;;21.65;52.70
45350;BME280;31086;51.702;-1.106;2022-07-23T00:27:03;101147.15;;;21.88;52.45
45350;BME280;31086;51.702;-1.106;2022-07-23T00:29:30;101146.27;;;21.97;52.42
45350;BME280;31086;51.702;-1.106;2022-07-23T00:31:58;101150.40;;;21.71;53.03
45350;BME280;31086;51.702;-1.106;2022-07-23T00:34:25;101149.55;;;20.86;53.90
45350;BME280;31086;51.702;-1.106;2022-07-23T00:36:53;101150.94;;;21.24;54.14
45350;BME280;31086;51.702;-1.106;2022-07-23T00:39:21;101150.89;;;21.03;54.76
45350;BME280;31086;51.702;-1.106;2022-07-23T00:41:49;101149.63;;;20.82;55.04
45350;BME280;31086;51.702;-1.106;2022-07-23T00:44:19;101151.98;;;21.08;55.75
45350;BME280;31086;51.702;-1.106;2022-07-23T00:46:47;101150.86;;;21.32;55.66
45350;BME280;31086;51.702;-1.106;2022-07-23T00:49:15;101155.06;;;20.63;58.35
45350;BME280;31086;51.702;-1.106;2022-07-23T00:51:42;101151.80;;;20.75;58.73
45350;BME280;31086;51.702;-1.106;2022-07-23T00:54:10;101147.73;;;20.66;59.07
45350;BME280;31086;51.702;-1.106;2022-07-23T00:56:38;101140.78;;;20.37;59.79
45350;BME280;31086;51.702;-1.106;2022-07-23T00:59:06;101137.42;;;20.50;59.67
45350;BME280;31086;51.702;-1.106;2022-07-23T01:01:34;101137.48;;;20.48;59.63
45350;BME280;31086;51.702;-1.106;2022-07-23T01:04:02;101139.47;;;20.55;59.53
45350;BME280;31086;51.702;-1.106;2022-07-23T01:06:29;101134.63;;;21.44;58.65
45350;BME280;31086;51.702;-1.106;2022-07-23T01:08:57;101135.95;;;21.21;58.85
45350;BME280;31086;51.702;-1.106;2022-07-23T01:11:25;101137.81;;;20.84;59.44
45350;BME280;31086;51.702;-1.106;2022-07-23T01:13:53;101136.35;;;21.06;59.33
45350;BME280;31086;51.702;-1.106;2022-07-23T01:16:20;101132.15;;;20.89;58.82
45350;BME280;31086;51.702;-1.106;2022-07-23T01:18:47;101129.96;;;21.06;58.20
45350;BME280;31086;51.702;-1.106;2022-07-23T01:21:18;101131.25;;;20.73;58.56
45350;BME280;31086;51.702;-1.106;2022-07-23T01:23:45;101131.03;;;19.68;60.66
45350;BME280;31086;51.702;-1.106;2022-07-23T01:26:12;101129.81;;;20.29;59.06
45350;BME280;31086;51.702;-1.106;2022-07-23T01:28:39;101130.91;;;20.63;58.35
45350;BME280;31086;51.702;-1.106;2022-07-23T01:31:07;101132.40;;;20.53;59.23
45350;BME280;31086;51.702;-1.106;2022-07-23T01:33:34;101132.71;;;19.82;60.14
45350;BME280;31086;51.702;-1.106;2022-07-23T01:36:02;101133.97;;;19.78;59.84
45350;BME280;31086;51.702;-1.106;2022-07-23T01:38:29;101138.82;;;18.67;61.50
45350;BME280;31086;51.702;-1.106;2022-07-23T01:40:56;101136.06;;;19.22;60.57
45350;BME280;31086;51.702;-1.106;2022-07-23T01:43:24;101137.90;;;18.57;61.63
45350;BME280;31086;51.702;-1.106;2022-07-23T01:45:51;101140.16;;;18.60;62.06
45350;BME280;31086;51.702;-1.106;2022-07-23T01:48:19;101135.01;;;18.61;61.35
45350;BME280;31086;51.702;-1.106;2022-07-23T01:50:46;101133.16;;;19.14;60.25
45350;BME280;31086;51.702;-1.106;2022-07-23T01:53:13;101135.01;;;18.61;60.39
45350;BME280;31086;51.702;-1.106;2022-07-23T01:55:41;101138.53;;;19.35;59.52
45350;BME280;31086;51.702;-1.106;2022-07-23T01:58:09;101139.31;;;18.86;59.97
45350;BME280;31086;51.702;-1.106;2022-07-23T02:00:36;101136.13;;;18.88;60.21
45350;BME280;31086;51.702;-1.106;2022-07-23T02:03:04;101135.43;;;18.76;59.93
45350;BME280;31086;51.702;-1.106;2022-07-23T02:05:31;101132.88;;;19.05;59.52
45350;BME280;31086;51.702;-1.106;2022-07-23T02:07:59;101130.12;;;18.75;59.56
45350;BME280;31086;51.702;-1.106;2022-07-23T02:10:28;101126.48;;;19.16;58.53
45350;BME280;31086;51.702;-1.106;2022-07-23T02:12:54;101125.88;;;18.88;59.38
45350;BME280;31086;51.702;-1.106;2022-07-23T02:15:22;101126.58;;;19.15;58.86
45350;BME280;31086;51.702;-1.106;2022-07-23T02:17:49;101122.36;;;18.28;60.30
45350;BME280;31086;51.702;-1.106;2022-07-23T02:20:17;101127.89;;;18.88;59.60
45350;BME280;31086;51.702;-1.106;2022-07-23T02:22:44;101133.44;;;19.04;59.02
45350;BME280;31086;51.702;-1.106;2022-07-23T02:25:11;101140.06;;;19.22;58.12
45350;BME280;31086;51.702;-1.106;2022-07-23T02:27:39;101136.92;;;19.22;57.61
45350;BME280;31086;51.702;-1.106;2022-07-23T02:30:07;101144.15;;;18.90;58.47
45350;BME280;31086;51.702;-1.106;2022-07-23T02:32:34;101142.29;;;19.14;58.05
45350;BME280;31086;51.702;-1.106;2022-07-23T02:35:02;101140.64;;;19.29;57.79
45350;BME280;31086;51.702;-1.106;2022-07-23T02:37:29;101139.14;;;19.65;57.15
45350;BME280;31086;51.702;-1.106;2022-07-23T02:39:57;101139.21;;;19.19;57.86
45350;BME280;31086;51.702;-1.106;2022-07-23T02:42:24;101134.36;;;18.38;58.47
45350;BME280;31086;51.702;-1.106;2022-07-23T02:44:52;101140.80;;;18.38;59.19
45350;BME280;31086;51.702;-1.106;2022-07-23T02:47:19;101141.45;;;18.45;59.65
45350;BME280;31086;51.702;-1.106;2022-07-23T02:49:46;101147.26;;;18.41;59.77
45350;BME280;31086;51.702;-1.106;2022-07-23T02:52:13;101141.94;;;18.39;60.33
45350;BME280;31086;51.702;-1.106;2022-07-23T02:54:40;101140.07;;;18.52;60.03
45350;BME280;31086;51.702;-1.106;2022-07-23T02:57:08;101139.58;;;18.40;60.37
45350;BME280;31086;51.702;-1.106;2022-07-23T02:59:35;101139.15;;;18.56;59.21
45350;BME280;31086;51.702;-1.106;2022-07-23T03:02:02;101144.34;;;17.01;62.19
45350;BME280;31086;51.702;-1.106;2022-07-23T03:04:29;101141.73;;;18.00;60.68
45350;BME280;31086;51.702;-1.106;2022-07-23T03:06:56;101135.93;;;17.66;61.16
45350;BME280;31086;51.702;-1.106;2022-07-23T03:09:24;101138.29;;;17.74;60.95
45350;BME280;31086;51.702;-1.106;2022-07-23T03:11:51;101138.39;;;17.95;60.80
45350;BME280;31086;51.702;-1.106;2022-07-23T03:14:18;101140.79;;;18.53;59.69
45350;BME280;31086;51.702;-1.106;2022-07-23T03:16:45;101145.17;;;18.33;59.14
45350;BME280;31086;51.702;-1.106;2022-07-23T03:19:13;101149.05;;;18.47;59.08
45350;BME280;31086;51.702;-1.106;2022-07-23T03:21:40;101150.48;;;17.80;59.96
45350;BME280;31086;51.702;-1.106;2022-07-23T03:24:08;101155.60;;;18.68;59.08
45350;BME280;31086;51.702;-1.106;2022-07-23T03:26:36;101154.08;;;18.21;59.23
45350;BME280;31086;51.702;-1.106;2022-07-23T03:29:03;101153.83;;;18.82;58.62
45350;BME280;31086;51.702;-1.106;2022-07-23T03:31:31;101152.54;;;17.84;59.53
45350;BME280;31086;51.702;-1.106;2022-07-23T03:33:58;101153.20;;;17.69;60.63
45350;BME280;31086;51.702;-1.106;2022-07-23T03:36:26;101155.40;;;17.41;60.82
45350;BME280;31086;51.702;-1.106;2022-07-23T03:38:53;101153.17;;;17.44;61.55
45350;BME280;31086;51.702;-1.106;2022-07-23T03:41:21;101155.76;;;16.02;64.54
45350;BME280;31086;51.702;-1.106;2022-07-23T03:43:49;101156.89;;;16.52;63.47
45350;BME280;31086;51.702;-1.106;2022-07-23T03:46:16;101152.71;;;17.01;62.71
45350;BME280;31086;51.702;-1.106;2022-07-23T03:48:44;101157.69;;;16.68;62.88
45350;BME280;31086;51.702;-1.106;2022-07-23T03:51:11;101159.44;;;17.60;61.18
45350;BME280;31086;51.702;-1.106;2022-07-23T03:53:39;101155.14;;;17.71;60.17
45350;BME280;31086;51.702;-1.106;2022-07-23T03:56:06;101151.72;;;18.08;59.78
45350;BME280;31086;51.702;-1.106;2022-07-23T03:58:34;101154.09;;;18.22;59.38
45350;BME280;31086;51.702;-1.106;2022-07-23T04:01:01;101154.07;;;16.76;61.91
45350;BME280;31086;51.702;-1.106;2022-07-23T04:03:28;101147.67;;;17.24;61.01
45350;BME280;31086;51.702;-1.106;2022-07-23T04:05:55;101146.93;;;16.40;63.44
45350;BME280;31086;51.702;-1.106;2022-07-23T04:08:22;101139.72;;;15.97;64.12
45350;BME280;31086;51.702;-1.106;2022-07-23T04:10:50;101144.06;;;15.84;65.89
45350;BME280;31086;51.702;-1.106;2022-07-23T04:13:17;101137.31;;;16.76;63.10
45350;BME280;31086;51.702;-1.106;2022-07-23T04:15:44;101138.60;;;15.62;65.07
45350;BME280;31086;51.702;-1.106;2022-07-23T04:18:11;101133.01;;;17.38;62.38
45350;BME280;31086;51.702;-1.106;2022-07-23T04:20:39;101137.87;;;17.17;62.41
45350;BME280;31086;51.702;-1.106;2022-07-23T04:23:06;101145.34;;;17.66;62.08
45350;BME280;31086;51.702;-1.106;2022-07-23T04:25:34;101148.39;;;17.37;61.73
45350;BME280;31086;51.702;-1.106;2022-07-23T04:28:01;101153.75;;;17.89;60.68
45350;BME280;31086;51.702;-1.106;2022-07-23T04:30:29;101154.87;;;16.38;63.97
45350;BME280;31086;51.702;-1.106;2022-07-23T04:32:56;101153.32;;;17.35;62.77
45350;BME280;31086;51.702;-1.106;2022-07-23T04:35:23;101157.24;;;17.03;62.82
45350;BME280;31086;51.702;-1.106;2022-07-23T04:37:51;101154.16;;;17.36;62.81
45350;BME280;31086;51.702;-1.106;2022-07-23T04:40:18;101153.41;;;16.97;63.26
45350;BME280;31086;51.702;-1.106;2022-07-23T04:42:45;101154.22;;;16.80;64.13
45350;BME280;31086;51.702;-1.106;2022-07-23T04:45:12;101147.07;;;17.41;62.79
45350;BME280;31086;51.702;-1.106;2022-07-23T04:47:40;101147.38;;;17.69;62.01
45350;BME280;31086;51.702;-1.106;2022-07-23T04:50:07;101150.85;;;18.03;61.99
45350;BME280;31086;51.702;-1.106;2022-07-23T04:52:35;101158.57;;;17.12;62.94
45350;BME280;31086;51.702;-1.106;2022-07-23T04:55:03;101160.52;;;17.74;62.82
45350;BME280;31086;51.702;-1.106;2022-07-23T04:57:30;101150.94;;;17.51;61.66
45350;BME280;31086;51.702;-1.106;2022-07-23T04:59:58;101144.52;;;17.95;61.39
45350;BME280;31086;51.702;-1.106;2022-07-23T05:02:25;101145.46;;;17.08;63.41
45350;BME280;31086;51.702;-1.106;2022-07-23T05:04:53;101147.37;;;16.91;63.93
45350;BME280;31086;51.702;-1.106;2022-07-23T05:07:20;101144.24;;;16.80;64.38
45350;BME280;31086;51.702;-1.106;2022-07-23T05:09:47;101141.60;;;17.50;62.90
45350;BME280;31086;51.702;-1.106;2022-07-23T05:12:14;101147.57;;;18.20;61.66
45350;BME280;31086;51.702;-1.106;2022-07-23T05:14:42;101144.90;;;18.59;61.00
45350;BME280;31086;51.702;-1.106;2022-07-23T05:17:09;101144.11;;;18.43;61.22
45350;BME280;31086;51.702;-1.106;2022-07-23T05:19:36;101140.81;;;18.19;61.75
45350;BME280;31086;51.702;-1.106;2022-07-23T05:22:04;101146.78;;;18.44;61.24
45350;BME280;31086;51.702;-1.106;2022-07-23T05:24:31;101147.73;;;17.50;62.53
45350;BME280;31086;51.702;-1.106;2022-07-23T05:26:58;101151.75;;;18.01;61.51
45350;BME280;31086;51.702;-1.106;2022-07-23T05:29:26;101154.88;;;17.01;64.28
45350;BME280;31086;51.702;-1.106;2022-07-23T05:31:53;101159.22;;;17.56;63.21
45350;BME280;31086;51.702;-1.106;2022-07-23T05:34:20;101157.58;;;18.55;61.34
45350;BME280;31086;51.702;-1.106;2022-07-23T05:36:48;101155.19;;;17.83;62.18
45350;BME280;31086;51.702;-1.106;2022-07-23T05:39:15;101155.08;;;17.49;63.16
45350;BME280;31086;51.702;-1.106;2022-07-23T05:41:43;101153.09;;;17.36;63.02
45350;BME280;31086;51.702;-1.106;2022-07-23T05:44:10;101156.71;;;17.61;62.35
45350;BME280;31086;51.702;-1.106;2022-07-23T05:46:37;101162.01;;;16.76;64.53
45350;BME280;31086;51.702;-1.106;2022-07-23T05:49:04;101156.18;;;18.02;62.40
45350;BME280;31086;51.702;-1.106;2022-07-23T05:51:31;101158.99;;;17.89;61.76
45350;BME280;31086;51.702;-1.106;2022-07-23T05:53:59;101159.89;;;17.88;61.48
45350;BME280;31086;51.702;-1.106;2022-07-23T05:56:26;101166.55;;;18.33;62.12
45350;BME280;31086;51.702;-1.106;2022-07-23T05:58:54;101171.64;;;18.43;61.13
45350;BME280;31086;51.702;-1.106;2022-07-23T06:01:22;101173.73;;;18.64;60.67
45350;BME280;31086;51.702;-1.106;2022-07-23T06:03:49;101174.09;;;18.72;60.06
45350;BME280;31086;51.702;-1.106;2022-07-23T06:06:17;101186.26;;;16.11;65.46
45350;BME280;31086;51.702;-1.106;2022-07-23T06:08:44;101182.94;;;17.77;62.71
45350;BME280;31086;51.702;-1.106;2022-07-23T06:11:11;101183.44;;;17.93;61.76
45350;BME280;31086;51.702;-1.106;2022-07-23T06:13:38;101181.61;;;18.14;61.43
45350;BME280;31086;51.702;-1.106;2022-07-23T06:16:05;101180.45;;;18.15;61.77
45350;BME280;31086;51.702;-1.106;2022-07-23T06:18:33;101182.98;;;16.45;64.74
45350;BME280;31086;51.702;-1.106;2022-07-23T06:21:00;101179.96;;;16.45;65.72
45350;BME280;31086;51.702;-1.106;2022-07-23T06:23:27;101179.70;;;16.93;64.35
45350;BME280;31086;51.702;-1.106;2022-07-23T06:25:55;101176.97;;;17.12;64.14
45350;BME280;31086;51.702;-1.106;2022-07-23T06:28:22;101177.14;;;17.36;64.01
45350;BME280;31086;51.702;-1.106;2022-07-23T06:30:49;101174.30;;;18.12;62.32
45350;BME280;31086;51.702;-1.106;2022-07-23T06:33:17;101166.05;;;16.83;63.99
45350;BME280;31086;51.702;-1.106;2022-07-23T06:35:44;101162.08;;;17.46;62.92
45350;BME280;31086;51.702;-1.106;2022-07-23T06:38:11;101158.88;;;17.40;63.35
45350;BME280;31086;51.702;-1.106;2022-07-23T06:40:38;101160.11;;;17.74;61.83
45350;BME280;31086;51.702;-1.106;2022-07-23T06:43:06;101167.17;;;18.30;61.81
45350;BME280;31086;51.702;-1.106;2022-07-23T06:45:34;101169.40;;;19.15;59.70
45350;BME280;31086;51.702;-1.106;2022-07-23T06:48:01;101173.86;;;18.42;60.11
45350;BME280;31086;51.702;-1.106;2022-07-23T06:50:28;101175.91;;;19.13;58.77
45350;BME280;31086;51.702;-1.106;2022-07-23T06:52:56;101178.58;;;18.74;59.53
45350;BME280;31086;51.702;-1.106;2022-07-23T06:55:24;101177.74;;;18.05;60.77
45350;BME280;31086;51.702;-1.106;2022-07-23T06:57:51;101174.27;;;18.95;59.61
45350;BME280;31086;51.702;-1.106;2022-07-23T07:00:19;101179.85;;;19.42;58.97
45350;BME280;31086;51.702;-1.106;2022-07-23T07:02:46;101181.21;;;18.89;59.21
45350;BME280;31086;51.702;-1.106;2022-07-23T07:05:13;101175.68;;;19.32;58.86
45350;BME280;31086;51.702;-1.106;2022-07-23T07:07:40;101172.80;;;19.39;58.45
45350;BME280;31086;51.702;-1.106;2022-07-23T07:10:07;101168.09;;;19.59;58.33
45350;BME280;31086;51.702;-1.106;2022-07-23T07:12:35;101164.87;;;19.99;57.45
45350;BME280;31086;51.702;-1.106;2022-07-23T07:15:02;101164.75;;;19.35;57.89
45350;BME280;31086;51.702;-1.106;2022-07-23T07:17:30;101168.99;;;19.71;57.56
45350;BME280;31086;51.702;-1.106;2022-07-23T07:19:57;101175.03;;;19.16;58.16
45350;BME280;31086;51.702;-1.106;2022-07-23T07:22:24;101176.20;;;19.49;57.03
45350;BME280;31086;51.702;-1.106;2022-07-23T07:24:52;101177.99;;;20.07;56.69
45350;BME280;31086;51.702;-1.106;2022-07-23T07:27:20;101175.97;;;19.75;57.10
45350;BME280;31086;51.702;-1.106;2022-07-23T07:29:47;101178.08;;;19.29;58.28
45350;BME280;31086;51.702;-1.106;2022-07-23T07:32:14;101175.37;;;19.45;57.85
45350;BME280;31086;51.702;-1.106;2022-07-23T07:34:42;101167.52;;;20.35;56.44
45350;BME280;31086;51.702;-1.106;2022-07-23T07:37:09;101170.47;;;19.88;56.69
45350;BME280;31086;51.702;-1.106;2022-07-23T07:39:37;101172.75;;;19.47;58.01
45350;BME280;31086;51.702;-1.106;2022-07-23T07:42:04;101170.80;;;19.25;58.33
45350;BME280;31086;51.702;-1.106;2022-07-23T07:44:31;101173.61;;;18.84;60.04
45350;BME280;31086;51.702;-1.106;2022-07-23T07:46:59;101178.79;;;19.47;58.27
45350;BME280;31086;51.702;-1.106;2022-07-23T07:49:26;101178.97;;;19.05;58.94
45350;BME280;31086;51.702;-1.106;2022-07-23T07:51:53;101181.71;;;19.33;58.65
45350;BME280;31086;51.702;-1.106;2022-07-23T07:54:21;101185.52;;;19.10;58.46
45350;BME280;31086;51.702;-1.106;2022-07-23T07:56:48;101185.87;;;19.24;58.27
45350;BME280;31086;51.702;-1.106;2022-07-23T07:59:15;101183.92;;;18.99;58.69
45350;BME280;31086;51.702;-1.106;2022-07-23T08:01:43;101182.75;;;17.88;60.76
45350;BME280;31086;51.702;-1.106;2022-07-23T08:04:10;101183.61;;;18.86;59.31
45350;BME280;31086;51.702;-1.106;2022-07-23T08:06:37;101181.45;;;18.76;58.69
45350;BME280;31086;51.702;-1.106;2022-07-23T08:09:05;101181.30;;;19.74;57.14
45350;BME280;31086;51.702;-1.106;2022-07-23T08:11:32;101186.26;;;19.88;57.22
45350;BME280;31086;51.702;-1.106;2022-07-23T08:13:59;101184.52;;;19.67;56.86
45350;BME280;31086;51.702;-1.106;2022-07-23T08:16:26;101187.60;;;19.56;57.08
45350;BME280;31086;51.702;-1.106;2022-07-23T08:18:53;101188.36;;;19.20;57.68
45350;BME280;31086;51.702;-1.106;2022-07-23T08:21:21;101187.12;;;18.95;58.24
45350;BME280;31086;51.702;-1.106;2022-07-23T08:23:48;101194.10;;;18.72;59.49
45350;BME280;31086;51.702;-1.106;2022-07-23T08:26:15;101180.78;;;18.17;60.24
45350;BME280;31086;51.702;-1.106;2022-07-23T08:28:42;101181.48;;;18.77;58.72
45350;BME280;31086;51.702;-1.106;2022-07-23T08:31:10;101179.37;;;18.39;58.32
45350;BME280;31086;51.702;-1.106;2022-07-23T08:33:38;101182.96;;;18.88;58.28
45350;BME280;31086;51.702;-1.106;2022-07-23T08:36:06;101180.39;;;18.74;58.23
45350;BME280;31086;51.702;-1.106;2022-07-23T08:38:34;101170.19;;;19.58;56.33
45350;BME280;31086;51.702;-1.106;2022-07-23T08:41:01;101170.79;;;18.98;57.46
45350;BME280;31086;51.702;-1.106;2022-07-23T08:43:31;101169.21;;;19.91;55.50
45350;BME280;31086;51.702;-1.106;2022-07-23T08:46:00;101174.59;;;18.81;57.56
45350;BME280;31086;51.702;-1.106;2022-07-23T08:48:30;101170.64;;;19.49;55.67
45350;BME280;31086;51.702;-1.106;2022-07-23T08:51:00;101177.56;;;18.85;57.32
45350;BME280;31086;51.702;-1.106;2022-07-23T08:53:28;101179.32;;;19.12;56.29
45350;BME280;31086;51.702;-1.106;2022-07-23T08:55:57;101175.28;;;19.80;55.18
45350;BME280;31086;51.702;-1.106;2022-07-23T08:58:25;101179.89;;;19.84;55.06
45350;BME280;31086;51.702;-1.106;2022-07-23T09:00:53;101176.13;;;20.59;53.28
45350;BME280;31086;51.702;-1.106;2022-07-23T09:03:22;101180.01;;;19.79;53.13
45350;BME280;31086;51.702;-1.106;2022-07-23T09:05:50;101180.48;;;19.77;52.60
45350;BME280;31086;51.702;-1.106;2022-07-23T09:08:19;101183.67;;;19.18;54.64
45350;BME280;31086;51.702;-1.106;2022-07-23T09:10:52;101177.14;;;19.30;54.15
45350;BME280;31086;51.702;-1.106;2022-07-23T09:13:29;101176.57;;;19.51;53.05
45350;BME280;31086;51.702;-1.106;2022-07-23T09:15:58;101184.58;;;18.84;54.97
45350;BME280;31086;51.702;-1.106;2022-07-23T09:18:31;101185.22;;;19.45;53.19
45350;BME280;31086;51.702;-1.106;2022-07-23T09:21:15;101193.33;;;18.94;54.22
45350;BME280;31086;51.702;-1.106;2022-07-23T09:23:45;101186.59;;;19.50;52.15
45350;BME280;31086;51.702;-1.106;2022-07-23T09:26:23;101176.61;;;19.72;51.99
45350;BME280;31086;51.702;-1.106;2022-07-23T09:28:53;101174.92;;;19.02;52.90
45350;BME280;31086;51.702;-1.106;2022-07-23T09:31:22;101177.17;;;19.49;51.58
45350;BME280;31086;51.702;-1.106;2022-07-23T09:33:50;101178.43;;;19.31;51.33
45350;BME280;31086;51.702;-1.106;2022-07-23T09:36:28;101179.08;;;18.65;52.53
45350;BME280;31086;51.702;-1.106;2022-07-23T09:38:55;101178.00;;;19.78;50.68
45350;BME280;31086;51.702;-1.106;2022-07-23T09:41:23;101175.59;;;20.04;49.63
45350;BME280;31086;51.702;-1.106;2022-07-23T09:43:55;101187.72;;;18.81;52.02
45350;BME280;31086;51.702;-1.106;2022-07-23T09:46:24;101176.69;;;20.28;49.89
45350;BME280;31086;51.702;-1.106;2022-07-23T09:48:52;101189.84;;;19.07;50.63
45350;BME280;31086;51.702;-1.106;2022-07-23T09:51:20;101189.00;;;19.54;49.02
45350;BME280;31086;51.702;-1.106;2022-07-23T09:53:48;101192.14;;;18.96;51.17
45350;BME280;31086;51.702;-1.106;2022-07-23T09:56:16;101183.92;;;19.41;48.83
45350;BME280;31086;51.702;-1.106;2022-07-23T09:58:44;101176.45;;;19.88;48.67
45350;BME280;31086;51.702;-1.106;2022-07-23T10:01:13;101173.83;;;20.47;46.91
45350;BME280;31086;51.702;-1.106;2022-07-23T10:03:41;101170.94;;;19.81;47.14
45350;BME280;31086;51.702;-1.106;2022-07-23T10:06:09;101171.91;;;19.44;49.43
45350;BME280;31086;51.702;-1.106;2022-07-23T10:08:40;101167.28;;;20.08;48.42
45350;BME280;31086;51.702;-1.106;2022-07-23T10:11:09;101171.42;;;19.34;48.92
45350;BME280;31086;51.702;-1.106;2022-07-23T10:13:38;101162.68;;;20.43;47.23
45350;BME280;31086;51.702;-1.106;2022-07-23T10:16:05;101165.57;;;20.35;46.99
45350;BME280;31086;51.702;-1.106;2022-07-23T10:18:32;101159.21;;;20.33;46.36
45350;BME280;31086;51.702;-1.106;2022-07-23T10:21:00;101158.84;;;19.32;49.48
45350;BME280;31086;51.702;-1.106;2022-07-23T10:23:37;101150.42;;;20.09;47.97
45350;BME280;31086;51.702;-1.106;2022-07-23T10:26:12;101157.63;;;20.87;47.83
45350;BME280;31086;51.702;-1.106;2022-07-23T10:28:59;101158.06;;;20.42;48.81
45350;BME280;31086;51.702;-1.106;2022-07-23T10:31:37;101157.23;;;20.54;48.86
45350;BME280;31086;51.702;-1.106;2022-07-23T10:34:14;101156.02;;;20.60;49.18
45350;BME280;31086;51.702;-1.106;2022-07-23T10:36:49;101164.26;;;19.57;51.86
45350;BME280;31086;51.702;-1.106;2022-07-23T10:39:22;101162.79;;;19.63;51.53
45350;BME280;31086;51.702;-1.106;2022-07-23T10:41:49;101161.45;;;20.14;50.73
45350;BME280;31086;51.702;-1.106;2022-07-23T10:44:20;101154.67;;;20.41;50.81
45350;BME280;31086;51.702;-1.106;2022-07-23T10:46:57;101147.51;;;20.35;50.70
45350;BME280;31086;51.702;-1.106;2022-07-23T10:49:26;101139.56;;;20.82;49.72
45350;BME280;31086;51.702;-1.106;2022-07-23T10:52:22;101143.34;;;21.22;49.62
45350;BME280;31086;51.702;-1.106;2022-07-23T10:54:52;101137.07;;;20.49;50.73
45350;BME280;31086;51.702;-1.106;2022-07-23T10:57:21;101129.21;;;22.00;47.77
45350;BME280;31086;51.702;-1.106;2022-07-23T11:00:22;101133.12;;;22.05;47.56
45350;BME280;31086;51.702;-1.106;2022-07-23T11:02:51;101140.38;;;20.76;50.58
45350;BME280;31086;51.702;-1.106;2022-07-23T11:05:20;101136.37;;;21.49;50.01
45350;BME280;31086;51.702;-1.106;2022-07-23T11:08:21;101137.10;;;22.23;49.46
45350;BME280;31086;51.702;-1.106;2022-07-23T11:10:51;101133.62;;;22.17;48.83
45350;BME280;31086;51.702;-1.106;2022-07-23T11:13:31;101132.65;;;22.05;48.82
45350;BME280;31086;51.702;-1.106;2022-07-23T11:16:06;101133.93;;;22.12;48.93
45350;BME280;31086;51.702;-1.106;2022-07-23T11:19:08;101128.62;;;21.59;49.17
45350;BME280;31086;51.702;-1.106;2022-07-23T11:21:51;101128.33;;;21.73;48.86
45350;BME280;31086;51.702;-1.106;2022-07-23T11:24:21;101132.66;;;21.36;49.69
45350;BME280;31086;51.702;-1.106;2022-07-23T11:26:54;101133.45;;;22.31;48.55
45350;BME280;31086;51.702;-1.106;2022-07-23T11:29:40;101130.14;;;22.07;48.30
45350;BME280;31086;51.702;-1.106;2022-07-23T11:32:22;101114.63;;;23.25;46.39
45350;BME280;31086;51.702;-1.106;2022-07-23T11:34:51;101110.86;;;23.47;46.58
45350;BME280;31086;51.702;-1.106;2022-07-23T11:37:37;101113.12;;;24.21;45.52
45350;BME280;31086;51.702;-1.106;2022-07-23T11:40:09;101118.98;;;23.96;46.31
45350;BME280;31086;51.702;-1.106;2022-07-23T11:42:38;101114.87;;;23.50;46.49
45350;BME280;31086;51.702;-1.106;2022-07-23T11:45:08;101113.33;;;21.79;49.31
45350;BME280;31086;51.702;-1.106;2022-07-23T11:47:35;101112.64;;;22.58;48.44
45350;BME280;31086;51.702;-1.106;2022-07-23T11:50:05;101115.31;;;22.45;48.73
45350;BME280;31086;51.702;-1.106;2022-07-23T11:52:34;101119.71;;;23.43;47.68
45350;BME280;31086;51.702;-1.106;2022-07-23T11:55:02;101112.90;;;24.11;46.13
45350;BME280;31086;51.702;-1.106;2022-07-23T11:57:31;101115.69;;;23.16;47.27
45350;BME280;31086;51.702;-1.106;2022-07-23T12:00:05;101118.08;;;22.96;47.84
45350;BME280;31086;51.702;-1.106;2022-07-23T12:02:34;101118.29;;;23.35;47.13
45350;BME280;31086;51.702;-1.106;2022-07-23T12:05:01;101116.63;;;23.61;46.90
45350;BME280;31086;51.702;-1.106;2022-07-23T12:07:30;101115.08;;;23.10;48.25
45350;BME280;31086;51.702;-1.106;2022-07-23T12:10:00;101110.73;;;22.36;49.40
45350;BME280;31086;51.702;-1.106;2022-07-23T12:12:35;101105.71;;;22.87;48.97
45350;BME280;31086;51.702;-1.106;2022-07-23T12:15:03;101109.99;;;23.43;48.02
45350;BME280;31086;51.702;-1.106;2022-07-23T12:17:33;101103.81;;;22.62;48.44
45350;BME280;31086;51.702;-1.106;2022-07-23T12:20:02;101103.69;;;21.52;50.27
45350;BME280;31086;51.702;-1.106;2022-07-23T12:22:36;101103.01;;;21.61;50.13
45350;BME280;31086;51.702;-1.106;2022-07-23T12:25:06;101107.42;;;21.42;50.46
45350;BME280;31086;51.702;-1.106;2022-07-23T12:27:34;101110.54;;;21.43;50.82
45350;BME280;31086;51.702;-1.106;2022-07-23T12:30:21;101111.38;;;22.49;49.57
45350;BME280;31086;51.702;-1.106;2022-07-23T12:32:51;101108.99;;;22.66;49.28
45350;BME280;31086;51.702;-1.106;2022-07-23T12:35:20;101105.45;;;23.08;48.12
45350;BME280;31086;51.702;-1.106;2022-07-23T12:37:50;101108.18;;;23.06;48.95
45350;BME280;31086;51.702;-1.106;2022-07-23T12:40:22;101105.55;;;24.00;47.08
45350;BME280;31086;51.702;-1.106;2022-07-23T12:42:52;101112.64;;;22.93;48.59
45350;BME280;31086;51.702;-1.106;2022-07-23T12:45:20;101110.30;;;22.66;49.75
45350;BME280;31086;51.702;-1.106;2022-07-23T12:47:53;101100.17;;;22.29;50.36
45350;BME280;31086;51.702;-1.106;2022-07-23T12:50:41;101095.99;;;21.44;51.34
45350;BME280;31086;51.702;-1.106;2022-07-23T12:53:12;101088.45;;;23.00;49.65